createdAt,value
2022-11-13T00:00:29.374Z,11.97
2022-11-13T00:01:23.946Z,12.04
2022-11-13T00:01:56.229Z,12.10
2022-11-13T00:02:28.156Z,12.13
2022-11-13T00:03:00.149Z,12.12
2022-11-13T00:03:32.008Z,12.08
2022-11-13T00:04:04.055Z,12.03
2022-11-13T00:04:35.885Z,11.97
2022-11-13T00:05:07.948Z,11.94
2022-11-13T00:05:39.909Z,11.94
2022-11-13T00:06:13.696Z,12.00
2022-11-13T00:06:45.550Z,12.08
2022-11-13T00:07:17.394Z,12.19
2022-11-13T00:07:49.282Z,12.30
2022-11-13T00:08:21.196Z,12.40
2022-11-13T00:08:54.784Z,12.47
2022-11-13T00:09:26.664Z,12.48
2022-11-13T00:09:58.513Z,12.40
2022-11-13T00:10:30.445Z,12.26
2022-11-13T00:11:22.570Z,12.08
2022-11-13T00:11:54.373Z,11.77
2022-11-13T00:12:26.250Z,11.59
2022-11-13T00:12:58.232Z,11.40
2022-11-13T00:13:30.788Z,11.22
2022-11-13T00:14:03.064Z,11.05
2022-11-13T00:14:34.849Z,10.90
2022-11-13T00:15:06.969Z,10.85
2022-11-13T00:15:38.684Z,10.90
2022-11-13T00:16:12.625Z,10.99
2022-11-13T00:16:44.349Z,11.11
2022-11-13T00:17:16.114Z,11.24
2022-11-13T00:17:47.920Z,11.35
2022-11-13T00:18:19.719Z,11.46
2022-11-13T00:18:51.822Z,11.59
2022-11-13T00:19:23.631Z,11.72
2022-11-13T00:19:55.473Z,11.82
2022-11-13T00:20:27.323Z,11.88
2022-11-13T00:21:05.746Z,11.93
2022-11-13T00:21:37.505Z,12.00
2022-11-13T00:22:09.431Z,12.12
2022-11-13T00:22:42.009Z,12.25
2022-11-13T00:23:13.962Z,12.40
2022-11-13T00:23:46.423Z,12.54
2022-11-13T00:24:18.212Z,12.65
2022-11-13T00:24:49.994Z,12.76
2022-11-13T00:25:21.750Z,12.86
2022-11-13T00:25:53.595Z,12.94
2022-11-13T00:26:27.999Z,12.96
2022-11-13T00:26:59.990Z,12.92
2022-11-13T00:27:32.240Z,12.79
2022-11-13T00:28:04.186Z,12.63
2022-11-13T00:28:36.444Z,12.43
2022-11-13T00:29:08.618Z,12.22
2022-11-13T00:29:40.449Z,12.01
2022-11-13T00:30:17.879Z,11.82
2022-11-13T00:30:50.984Z,11.59
2022-11-13T00:31:23.183Z,11.42
2022-11-13T00:31:55.111Z,11.31
2022-11-13T00:32:26.995Z,11.26
2022-11-13T00:32:58.792Z,11.27
2022-11-13T00:34:09.035Z,11.32
2022-11-13T00:35:14.444Z,11.74
2022-11-13T00:35:46.184Z,11.91
2022-11-13T00:36:26.341Z,12.06
2022-11-13T00:36:58.407Z,12.17
2022-11-13T00:37:30.300Z,12.21
2022-11-13T00:38:02.050Z,12.22
2022-11-13T00:38:34.318Z,12.22
2022-11-13T00:39:06.189Z,12.20
2022-11-13T00:39:38.066Z,12.17
2022-11-13T00:40:10.273Z,12.11
2022-11-13T00:40:42.182Z,12.06
2022-11-13T00:41:14.315Z,12.01
2022-11-13T00:41:46.263Z,11.95
2022-11-13T00:42:18.098Z,11.91
2022-11-13T00:42:49.872Z,11.87
2022-11-13T00:43:21.651Z,11.84
2022-11-13T00:43:53.577Z,11.80
2022-11-13T00:44:25.384Z,11.78
2022-11-13T00:44:57.137Z,11.74
2022-11-13T00:45:29.022Z,11.71
2022-11-13T00:46:01.441Z,11.67
2022-11-13T00:46:33.610Z,11.64
2022-11-13T00:47:06.285Z,11.61
2022-11-13T00:47:38.190Z,11.59
2022-11-13T00:48:09.924Z,11.56
2022-11-13T00:48:42.137Z,11.54
2022-11-13T00:49:14.050Z,11.52
2022-11-13T00:49:45.818Z,11.50
2022-11-13T00:50:17.674Z,11.48
2022-11-13T00:50:49.923Z,11.44
2022-11-13T00:51:22.170Z,11.41
2022-11-13T00:51:54.052Z,11.39
2022-11-13T00:52:25.909Z,11.36
2022-11-13T00:52:57.726Z,11.35
2022-11-13T00:53:29.672Z,11.32
2022-11-13T00:54:01.581Z,11.29
2022-11-13T00:54:33.434Z,11.27
2022-11-13T00:55:05.782Z,11.26
2022-11-13T00:55:37.642Z,11.27
2022-11-13T00:56:09.470Z,11.30
2022-11-13T00:56:41.333Z,11.42
2022-11-13T00:57:13.355Z,11.57
2022-11-13T00:57:45.172Z,11.72
2022-11-13T00:58:17.838Z,11.86
2022-11-13T00:58:49.865Z,11.97
2022-11-13T00:59:21.757Z,12.06
2022-11-13T00:59:53.665Z,12.15
2022-11-13T01:00:25.473Z,12.26
2022-11-13T01:01:04.787Z,12.35
2022-11-13T01:01:36.731Z,12.47
2022-11-13T01:02:09.671Z,12.55
2022-11-13T01:02:41.419Z,12.63
2022-11-13T01:03:14.987Z,12.70
2022-11-13T01:03:46.904Z,12.76
2022-11-13T01:04:18.755Z,12.81
2022-11-13T01:04:50.788Z,12.86
2022-11-13T01:05:22.576Z,12.91
2022-11-13T01:05:54.347Z,12.95
2022-11-13T01:06:27.508Z,13.02
2022-11-13T01:06:59.332Z,13.05
2022-11-13T01:07:31.195Z,13.04
2022-11-13T01:08:04.210Z,13.03
2022-11-13T01:08:36.413Z,12.99
2022-11-13T01:09:09.155Z,12.98
2022-11-13T01:09:40.934Z,12.98
2022-11-13T01:10:12.947Z,13.00
2022-11-13T01:10:53.000Z,13.00
2022-11-13T01:11:26.869Z,12.96
2022-11-13T01:11:58.665Z,12.92
2022-11-13T01:12:30.712Z,12.95
2022-11-13T01:13:02.527Z,12.99
2022-11-13T01:13:34.389Z,13.02
2022-11-13T01:14:06.621Z,13.03
2022-11-13T01:14:38.533Z,13.03
2022-11-13T01:15:10.439Z,13.01
2022-11-13T01:15:44.079Z,12.97
2022-11-13T01:16:17.831Z,12.90
2022-11-13T01:16:49.927Z,12.83
2022-11-13T01:17:21.886Z,12.80
2022-11-13T01:17:54.644Z,12.85
2022-11-13T01:18:27.030Z,12.93
2022-11-13T01:18:59.233Z,13.05
2022-11-13T01:19:31.148Z,13.14
2022-11-13T01:20:04.611Z,13.20
2022-11-13T01:20:36.671Z,13.23
2022-11-13T01:21:15.046Z,13.26
2022-11-13T01:21:46.876Z,13.34
2022-11-13T01:22:18.723Z,13.45
2022-11-13T01:22:50.816Z,13.58
2022-11-13T01:23:22.573Z,13.70
2022-11-13T01:23:55.801Z,13.81
2022-11-13T01:24:27.590Z,13.91
2022-11-13T01:24:59.326Z,13.95
2022-11-13T01:25:31.279Z,13.88
2022-11-13T01:26:22.234Z,13.75
2022-11-13T01:26:54.051Z,13.44
2022-11-13T01:27:25.948Z,13.22
2022-11-13T01:27:57.723Z,13.01
2022-11-13T01:28:29.702Z,12.80
2022-11-13T01:29:01.792Z,12.59
2022-11-13T01:29:33.725Z,12.40
2022-11-13T01:30:06.193Z,12.23
2022-11-13T01:30:39.031Z,12.14
2022-11-13T01:31:18.435Z,12.14
2022-11-13T01:31:50.407Z,12.27
2022-11-13T01:32:22.234Z,12.47
2022-11-13T01:32:54.022Z,12.68
2022-11-13T01:33:26.020Z,12.92
2022-11-13T01:33:58.329Z,13.14
2022-11-13T01:34:30.519Z,13.32
2022-11-13T01:35:02.318Z,13.47
2022-11-13T01:35:34.099Z,13.61
2022-11-13T01:36:12.528Z,13.74
2022-11-13T01:36:44.474Z,13.87
2022-11-13T01:37:16.295Z,13.95
2022-11-13T01:37:48.099Z,14.00
2022-11-13T01:38:19.968Z,13.94
2022-11-13T01:38:52.540Z,13.82
2022-11-13T01:39:24.327Z,13.62
2022-11-13T01:39:56.130Z,13.41
2022-11-13T01:40:27.877Z,13.18
2022-11-13T01:40:59.764Z,12.96
2022-11-13T01:41:33.797Z,12.76
2022-11-13T01:42:05.872Z,12.53
2022-11-13T01:42:37.672Z,12.36
2022-11-13T01:43:38.894Z,12.23
2022-11-13T01:44:13.517Z,12.25
2022-11-13T01:44:51.663Z,12.39
2022-11-13T01:46:08.350Z,12.58
2022-11-13T01:46:54.880Z,12.97
2022-11-13T01:47:27.168Z,13.25
2022-11-13T01:47:59.552Z,13.44
2022-11-13T01:48:56.059Z,13.62
2022-11-13T01:49:34.041Z,13.83
2022-11-13T01:50:09.430Z,13.98
2022-11-13T01:50:41.412Z,14.10
2022-11-13T01:51:18.595Z,14.12
2022-11-13T01:51:55.508Z,14.03
2022-11-13T01:52:35.074Z,13.86
2022-11-13T01:53:07.205Z,13.60
2022-11-13T01:53:41.652Z,13.39
2022-11-13T01:54:18.691Z,13.14
2022-11-13T01:54:54.856Z,12.89
2022-11-13T01:55:26.918Z,12.65
2022-11-13T01:55:59.039Z,12.47
2022-11-13T01:56:30.988Z,12.29
2022-11-13T01:57:04.105Z,12.18
2022-11-13T01:57:35.936Z,12.18
2022-11-13T01:58:10.001Z,12.26
2022-11-13T01:58:46.519Z,12.41
2022-11-13T01:59:25.288Z,12.60
2022-11-13T02:00:01.595Z,12.82
2022-11-13T02:00:33.788Z,13.03
2022-11-13T02:01:06.040Z,13.21
2022-11-13T02:01:38.212Z,13.36
2022-11-13T02:02:10.062Z,13.50
2022-11-13T02:02:42.072Z,13.63
2022-11-13T02:03:13.959Z,13.73
2022-11-13T02:03:45.772Z,13.82
2022-11-13T02:04:17.495Z,13.88
2022-11-13T02:04:49.807Z,13.87
2022-11-13T02:05:21.584Z,13.78
2022-11-13T02:05:54.034Z,13.62
2022-11-13T02:06:30.401Z,13.42
2022-11-13T02:07:06.712Z,13.18
2022-11-13T02:07:38.665Z,12.93
2022-11-13T02:08:10.651Z,12.73
2022-11-13T02:08:43.932Z,12.53
2022-11-13T02:09:18.287Z,12.33
2022-11-13T02:09:54.376Z,12.16
2022-11-13T02:10:26.752Z,12.07
2022-11-13T02:10:58.660Z,12.11
2022-11-13T02:11:30.537Z,12.22
2022-11-13T02:12:05.339Z,12.36
2022-11-13T02:12:41.602Z,12.54
2022-11-13T02:13:14.232Z,12.74
2022-11-13T02:13:46.976Z,12.92
2022-11-13T02:14:21.285Z,13.08
2022-11-13T02:14:54.760Z,13.23
2022-11-13T02:15:27.936Z,13.36
2022-11-13T02:16:00.477Z,13.49
2022-11-13T02:16:34.390Z,13.60
2022-11-13T02:17:09.847Z,13.72
2022-11-13T02:18:08.520Z,13.83
2022-11-13T02:18:42.017Z,13.96
2022-11-13T02:19:31.070Z,14.02
2022-11-13T02:20:05.472Z,14.00
2022-11-13T02:20:46.097Z,13.87
2022-11-13T02:21:31.175Z,13.65
2022-11-13T02:22:25.426Z,13.36
2022-11-13T02:23:11.412Z,13.00
2022-11-13T02:23:51.764Z,12.72
2022-11-13T02:24:32.572Z,12.49
2022-11-13T02:25:06.295Z,12.28
2022-11-13T02:25:41.585Z,12.20
2022-11-13T02:26:13.330Z,12.23
2022-11-13T02:26:45.385Z,12.33
2022-11-13T02:27:29.905Z,12.48
2022-11-13T02:28:01.798Z,12.73
2022-11-13T02:28:33.825Z,12.95
2022-11-13T02:29:05.935Z,13.17
2022-11-13T02:29:37.817Z,13.38
2022-11-13T02:30:32.091Z,13.57
2022-11-13T02:31:12.607Z,13.85
2022-11-13T02:31:44.355Z,14.02
2022-11-13T02:32:16.197Z,14.17
2022-11-13T02:32:50.420Z,14.31
2022-11-13T02:33:31.246Z,14.36
2022-11-13T02:34:03.144Z,14.25
2022-11-13T02:34:34.978Z,14.07
2022-11-13T02:35:06.992Z,13.87
2022-11-13T02:35:38.813Z,13.64
2022-11-13T02:36:12.355Z,13.40
2022-11-13T02:36:44.166Z,13.16
2022-11-13T02:37:15.954Z,12.93
2022-11-13T02:37:47.961Z,12.72
2022-11-13T02:38:19.923Z,12.54
2022-11-13T02:38:53.701Z,12.46
2022-11-13T02:39:25.424Z,12.54
2022-11-13T02:39:57.221Z,12.72
2022-11-13T02:40:29.547Z,12.97
2022-11-13T02:41:01.348Z,13.23
2022-11-13T02:41:33.126Z,13.48
2022-11-13T02:42:04.927Z,13.72
2022-11-13T02:42:36.902Z,13.92
2022-11-13T02:43:08.815Z,14.09
2022-11-13T02:43:41.019Z,14.25
2022-11-13T02:44:12.866Z,14.37
2022-11-13T02:44:44.669Z,14.41
2022-11-13T02:45:16.460Z,14.34
2022-11-13T02:45:48.268Z,14.18
2022-11-13T02:46:20.181Z,13.97
2022-11-13T02:46:52.056Z,13.75
2022-11-13T02:47:24.507Z,13.51
2022-11-13T02:47:58.917Z,13.28
2022-11-13T02:48:30.997Z,13.04
2022-11-13T02:49:03.990Z,12.82
2022-11-13T02:49:35.774Z,12.64
2022-11-13T02:50:09.726Z,12.55
2022-11-13T02:50:41.633Z,12.59
2022-11-13T02:51:13.776Z,12.74
2022-11-13T02:51:45.577Z,12.94
2022-11-13T02:52:17.429Z,13.16
2022-11-13T02:52:49.384Z,13.37
2022-11-13T02:53:21.394Z,13.56
2022-11-13T02:53:53.155Z,13.73
2022-11-13T02:54:25.220Z,13.87
2022-11-13T02:54:57.052Z,14.00
2022-11-13T02:55:28.931Z,14.12
2022-11-13T02:56:00.894Z,14.22
2022-11-13T02:56:32.767Z,14.27
2022-11-13T02:57:04.615Z,14.29
2022-11-13T02:57:36.511Z,14.26
2022-11-13T02:58:08.310Z,14.13
2022-11-13T02:58:39.977Z,13.94
2022-11-13T02:59:11.736Z,13.72
2022-11-13T02:59:43.853Z,13.50
2022-11-13T03:00:16.403Z,13.27
2022-11-13T03:00:48.412Z,13.05
2022-11-13T03:01:20.351Z,12.84
2022-11-13T03:01:52.363Z,12.64
2022-11-13T03:02:24.643Z,12.54
2022-11-13T03:02:56.619Z,12.52
2022-11-13T03:03:56.149Z,12.59
2022-11-13T03:04:20.490Z,12.78
2022-11-13T03:05:48.456Z,13.19
2022-11-13T03:06:20.353Z,13.37
2022-11-13T03:06:52.097Z,13.53
2022-11-13T03:07:23.928Z,13.68
2022-11-13T03:07:55.679Z,13.82
2022-11-13T03:08:27.765Z,13.94
2022-11-13T03:08:59.598Z,14.04
2022-11-13T03:09:31.406Z,14.11
2022-11-13T03:10:03.592Z,14.18
2022-11-13T03:10:36.377Z,14.22
2022-11-13T03:11:11.205Z,14.26
2022-11-13T03:11:43.762Z,14.29
2022-11-13T03:12:15.548Z,14.32
2022-11-13T03:12:47.418Z,14.34
2022-11-13T03:13:19.372Z,14.31
2022-11-13T03:13:51.274Z,14.20
2022-11-13T03:14:23.070Z,14.03
2022-11-13T03:14:54.766Z,13.84
2022-11-13T03:15:26.554Z,13.61
2022-11-13T03:16:06.271Z,13.39
2022-11-13T03:16:38.059Z,13.13
2022-11-13T03:17:09.942Z,12.92
2022-11-13T03:17:41.861Z,12.74
2022-11-13T03:18:14.017Z,12.64
2022-11-13T03:18:46.361Z,12.63
2022-11-13T03:19:18.333Z,12.67
2022-11-13T03:19:50.092Z,12.76
2022-11-13T03:20:22.028Z,12.84
2022-11-13T03:20:53.788Z,12.93
2022-11-13T03:21:25.567Z,13.01
2022-11-13T03:21:57.529Z,13.10
2022-11-13T03:22:29.442Z,13.18
2022-11-13T03:23:01.910Z,13.26
2022-11-13T03:23:33.745Z,13.30
2022-11-13T03:24:05.959Z,13.34
2022-11-13T03:24:37.807Z,13.37
2022-11-13T03:25:10.880Z,13.42
2022-11-13T03:25:42.992Z,13.50
2022-11-13T03:26:16.859Z,13.58
2022-11-13T03:26:48.671Z,13.64
2022-11-13T03:27:21.071Z,13.67
2022-11-13T03:27:52.760Z,13.69
2022-11-13T03:28:24.723Z,13.72
2022-11-13T03:28:56.727Z,13.73
2022-11-13T03:29:28.918Z,13.75
2022-11-13T03:30:00.837Z,13.74
2022-11-13T03:30:32.650Z,13.74
2022-11-13T03:31:05.108Z,13.73
2022-11-13T03:31:37.033Z,13.72
2022-11-13T03:32:08.796Z,13.73
2022-11-13T03:32:40.729Z,13.77
2022-11-13T03:33:12.397Z,13.80
2022-11-13T03:33:44.272Z,13.83
2022-11-13T03:34:16.934Z,13.86
2022-11-13T03:34:48.776Z,13.85
2022-11-13T03:35:22.234Z,13.85
2022-11-13T03:35:54.511Z,13.82
2022-11-13T03:36:26.715Z,13.78
2022-11-13T03:36:58.530Z,13.75
2022-11-13T03:37:30.355Z,13.73
2022-11-13T03:38:02.303Z,13.72
2022-11-13T03:38:34.688Z,13.69
2022-11-13T03:39:06.639Z,13.68
2022-11-13T03:39:38.540Z,13.69
2022-11-13T03:40:10.705Z,13.71
2022-11-13T03:40:42.954Z,13.75
2022-11-13T03:41:14.791Z,13.80
2022-11-13T03:41:46.665Z,13.84
2022-11-13T03:42:18.390Z,13.87
2022-11-13T03:42:50.167Z,13.87
2022-11-13T03:43:22.199Z,13.88
2022-11-13T03:43:54.086Z,13.88
2022-11-13T03:44:25.928Z,13.87
2022-11-13T03:44:57.944Z,13.86
2022-11-13T03:45:29.819Z,13.83
2022-11-13T03:46:01.667Z,13.79
2022-11-13T03:46:33.595Z,13.75
2022-11-13T03:47:05.704Z,13.73
2022-11-13T03:47:37.733Z,13.71
2022-11-13T03:48:09.525Z,13.69
2022-11-13T03:48:41.430Z,13.67
2022-11-13T03:49:13.289Z,13.67
2022-11-13T03:49:45.217Z,13.67
2022-11-13T03:50:17.038Z,13.65
2022-11-13T03:50:52.926Z,13.62
2022-11-13T03:51:24.975Z,13.56
2022-11-13T03:51:57.360Z,13.52
2022-11-13T03:52:29.253Z,13.48
2022-11-13T03:53:01.289Z,13.46
2022-11-13T03:53:33.249Z,13.45
2022-11-13T03:54:05.037Z,13.44
2022-11-13T03:54:36.881Z,13.42
2022-11-13T03:55:08.959Z,13.42
2022-11-13T03:55:41.019Z,13.39
2022-11-13T03:56:12.822Z,13.37
2022-11-13T03:56:44.550Z,13.34
2022-11-13T03:57:16.427Z,13.39
2022-11-13T03:57:48.277Z,13.50
2022-11-13T03:58:20.743Z,13.64
2022-11-13T03:58:52.571Z,13.79
2022-11-13T03:59:24.360Z,13.96
2022-11-13T03:59:56.177Z,14.08
2022-11-13T04:00:28.157Z,14.19
2022-11-13T04:00:59.946Z,14.25
2022-11-13T04:01:31.959Z,14.28
2022-11-13T04:02:03.978Z,14.30
2022-11-13T04:02:36.101Z,14.29
2022-11-13T04:03:08.797Z,14.27
2022-11-13T04:03:41.609Z,14.24
2022-11-13T04:04:13.460Z,14.22
2022-11-13T04:04:45.285Z,14.19
2022-11-13T04:05:22.474Z,14.15
2022-11-13T04:05:54.546Z,14.10
2022-11-13T04:06:26.425Z,14.06
2022-11-13T04:06:58.261Z,14.04
2022-11-13T04:07:30.173Z,14.02
2022-11-13T04:08:02.451Z,14.01
2022-11-13T04:08:34.174Z,13.99
2022-11-13T04:09:06.429Z,13.95
2022-11-13T04:09:38.319Z,13.90
2022-11-13T04:10:10.120Z,13.83
2022-11-13T04:10:42.060Z,13.77
2022-11-13T04:11:13.890Z,13.71
2022-11-13T04:11:45.769Z,13.67
2022-11-13T04:12:17.481Z,13.65
2022-11-13T04:12:49.341Z,13.65
2022-11-13T04:13:21.144Z,13.62
2022-11-13T04:13:53.037Z,13.60
2022-11-13T04:14:24.821Z,13.55
2022-11-13T04:14:56.657Z,13.49
2022-11-13T04:15:28.628Z,13.43
2022-11-13T04:16:00.594Z,13.38
2022-11-13T04:16:32.328Z,13.34
2022-11-13T04:17:04.149Z,13.33
2022-11-13T04:17:36.052Z,13.33
2022-11-13T04:18:07.889Z,13.34
2022-11-13T04:18:39.723Z,13.35
2022-11-13T04:19:11.508Z,13.37
2022-11-13T04:19:43.201Z,13.37
2022-11-13T04:20:15.821Z,13.37
2022-11-13T04:20:47.617Z,13.35
2022-11-13T04:21:19.527Z,13.33
2022-11-13T04:21:51.268Z,13.31
2022-11-13T04:22:23.060Z,13.28
2022-11-13T04:22:56.429Z,13.25
2022-11-13T04:23:28.806Z,13.21
2022-11-13T04:24:00.599Z,13.15
2022-11-13T04:24:32.536Z,13.10
2022-11-13T04:25:05.436Z,13.06
2022-11-13T04:25:37.192Z,13.01
2022-11-13T04:26:09.146Z,12.98
2022-11-13T04:26:41.038Z,12.94
2022-11-13T04:27:12.804Z,12.92
2022-11-13T04:27:44.545Z,12.89
2022-11-13T04:28:16.352Z,12.87
2022-11-13T04:28:48.227Z,12.84
2022-11-13T04:29:20.053Z,12.81
2022-11-13T04:29:51.827Z,12.77
2022-11-13T04:30:23.579Z,12.73
2022-11-13T04:30:55.870Z,12.69
2022-11-13T04:31:27.672Z,12.66
2022-11-13T04:31:59.576Z,12.63
2022-11-13T04:32:32.041Z,12.60
2022-11-13T04:33:03.802Z,12.58
2022-11-13T04:33:35.490Z,12.55
2022-11-13T04:34:08.226Z,12.54
2022-11-13T04:34:40.213Z,12.53
2022-11-13T04:35:12.225Z,12.52
2022-11-13T04:35:45.443Z,12.51
2022-11-13T04:36:17.147Z,12.51
2022-11-13T04:36:48.989Z,12.51
2022-11-13T04:37:20.683Z,12.51
2022-11-13T04:37:52.917Z,12.50
2022-11-13T04:38:24.811Z,12.51
2022-11-13T04:38:56.808Z,12.50
2022-11-13T04:39:28.614Z,12.48
2022-11-13T04:40:00.350Z,12.46
2022-11-13T04:40:32.055Z,12.43
2022-11-13T04:41:22.338Z,12.41
2022-11-13T04:42:12.551Z,12.36
2022-11-13T04:42:50.423Z,12.32
2022-11-13T04:43:22.142Z,12.30
2022-11-13T04:43:53.904Z,12.29
2022-11-13T04:44:25.658Z,12.29
2022-11-13T04:44:57.481Z,12.28
2022-11-13T04:45:29.333Z,12.28
2022-11-13T04:46:01.208Z,12.28
2022-11-13T04:46:33.118Z,12.28
2022-11-13T04:47:05.014Z,12.26
2022-11-13T04:47:37.081Z,12.25
2022-11-13T04:48:09.082Z,12.23
2022-11-13T04:48:40.803Z,12.21
2022-11-13T04:49:12.525Z,12.19
2022-11-13T04:49:44.338Z,12.17
2022-11-13T04:50:16.377Z,12.15
2022-11-13T04:50:48.130Z,12.12
2022-11-13T04:51:19.964Z,12.09
2022-11-13T04:51:51.856Z,12.06
2022-11-13T04:52:23.575Z,12.04
2022-11-13T04:52:55.441Z,12.01
2022-11-13T04:53:27.238Z,11.99
2022-11-13T04:53:59.094Z,11.97
2022-11-13T04:54:30.878Z,11.95
2022-11-13T04:55:03.786Z,11.93
2022-11-13T04:55:35.637Z,11.92
2022-11-13T04:56:07.445Z,11.89
2022-11-13T04:56:39.197Z,11.88
2022-11-13T04:57:10.861Z,11.86
2022-11-13T04:57:42.690Z,11.85
2022-11-13T04:58:14.517Z,11.83
2022-11-13T04:58:46.312Z,11.81
2022-11-13T04:59:18.416Z,11.81
2022-11-13T04:59:50.780Z,11.81
2022-11-13T05:00:23.244Z,11.80
2022-11-13T05:00:55.062Z,11.80
2022-11-13T05:01:26.854Z,11.80
2022-11-13T05:01:58.670Z,11.78
2022-11-13T05:02:30.563Z,11.78
2022-11-13T05:03:02.610Z,11.76
2022-11-13T05:03:34.481Z,11.75
2022-11-13T05:04:06.219Z,11.74
2022-11-13T05:04:38.167Z,11.72
2022-11-13T05:05:10.272Z,11.72
2022-11-13T05:05:42.345Z,11.71
2022-11-13T05:06:14.277Z,11.70
2022-11-13T05:06:46.096Z,11.69
2022-11-13T05:07:18.029Z,11.68
2022-11-13T05:07:50.266Z,11.68
2022-11-13T05:08:22.095Z,11.67
2022-11-13T05:08:54.097Z,11.67
2022-11-13T05:09:25.790Z,11.66
2022-11-13T05:09:57.854Z,11.67
2022-11-13T05:10:29.726Z,11.66
2022-11-13T05:11:02.952Z,11.66
2022-11-13T05:11:34.814Z,11.65
2022-11-13T05:12:07.693Z,11.65
2022-11-13T05:12:39.498Z,11.64
2022-11-13T05:13:11.298Z,11.64
2022-11-13T05:13:43.162Z,11.64
2022-11-13T05:14:14.980Z,11.64
2022-11-13T05:14:46.782Z,11.64
2022-11-13T05:15:19.615Z,11.64
2022-11-13T05:15:59.080Z,11.63
2022-11-13T05:16:30.765Z,11.62
2022-11-13T05:17:03.263Z,11.63
2022-11-13T05:17:35.012Z,11.64
2022-11-13T05:18:06.881Z,11.65
2022-11-13T05:18:39.159Z,11.66
2022-11-13T05:19:11.039Z,11.66
2022-11-13T05:19:42.780Z,11.66
2022-11-13T05:20:14.833Z,11.66
2022-11-13T05:20:46.595Z,11.66
2022-11-13T05:21:18.409Z,11.66
2022-11-13T05:21:50.248Z,11.66
2022-11-13T05:22:22.209Z,11.66
2022-11-13T05:22:54.193Z,11.65
2022-11-13T05:23:26.371Z,11.66
2022-11-13T05:23:58.122Z,11.66
2022-11-13T05:24:30.570Z,11.65
2022-11-13T05:25:02.463Z,11.66
2022-11-13T05:25:34.584Z,11.65
2022-11-13T05:26:13.137Z,11.65
2022-11-13T05:26:44.931Z,11.65
2022-11-13T05:27:17.683Z,11.64
2022-11-13T05:27:49.784Z,11.64
2022-11-13T05:28:21.637Z,11.63
2022-11-13T05:28:55.932Z,11.63
2022-11-13T05:29:27.852Z,11.63
2022-11-13T05:29:59.669Z,11.62
2022-11-13T05:30:31.350Z,11.60
2022-11-13T05:31:15.632Z,11.59
2022-11-13T05:31:47.778Z,11.56
2022-11-13T05:32:19.550Z,11.55
2022-11-13T05:32:52.265Z,11.54
2022-11-13T05:33:24.026Z,11.53
2022-11-13T05:33:55.928Z,11.52
2022-11-13T05:34:27.702Z,11.50
2022-11-13T05:34:59.467Z,11.49
2022-11-13T05:35:31.608Z,11.48
2022-11-13T05:36:14.358Z,11.47
2022-11-13T05:36:46.147Z,11.46
2022-11-13T05:37:18.023Z,11.45
2022-11-13T05:37:49.738Z,11.44
2022-11-13T05:38:21.596Z,11.44
2022-11-13T05:38:53.450Z,11.43
2022-11-13T05:39:25.132Z,11.43
2022-11-13T05:39:56.903Z,11.42
2022-11-13T05:40:29.599Z,11.41
2022-11-13T05:41:10.058Z,11.41
2022-11-13T05:41:41.903Z,11.41
2022-11-13T05:42:13.678Z,11.41
2022-11-13T05:42:45.611Z,11.42
2022-11-13T05:43:17.440Z,11.43
2022-11-13T05:43:53.744Z,11.43
2022-11-13T05:44:28.422Z,11.43
2022-11-13T05:45:00.206Z,11.44
2022-11-13T05:45:32.104Z,11.44
2022-11-13T05:46:10.768Z,11.44
2022-11-13T05:46:42.591Z,11.43
2022-11-13T05:47:14.411Z,11.43
2022-11-13T05:47:46.263Z,11.42
2022-11-13T05:48:18.523Z,11.41
2022-11-13T05:48:56.025Z,11.39
2022-11-13T05:49:27.821Z,11.39
2022-11-13T05:49:59.643Z,11.38
2022-11-13T05:50:31.535Z,11.37
2022-11-13T05:51:04.448Z,11.36
2022-11-13T05:51:36.314Z,11.35
2022-11-13T05:52:08.163Z,11.35
2022-11-13T05:52:40.101Z,11.33
2022-11-13T05:53:11.863Z,11.32
2022-11-13T05:53:43.774Z,11.32
2022-11-13T05:54:15.627Z,11.33
2022-11-13T05:54:47.343Z,11.36
2022-11-13T05:55:23.013Z,11.37
2022-11-13T05:56:00.225Z,11.39
2022-11-13T05:56:34.597Z,11.38
2022-11-13T05:57:06.399Z,11.39
2022-11-13T05:57:38.228Z,11.40
2022-11-13T05:58:11.396Z,11.40
2022-11-13T05:58:43.656Z,11.40
2022-11-13T05:59:15.649Z,11.40
2022-11-13T05:59:47.588Z,11.39
2022-11-13T06:00:19.657Z,11.39
2022-11-13T06:00:51.531Z,11.39
2022-11-13T06:01:27.777Z,11.40
2022-11-13T06:01:59.845Z,11.38
2022-11-13T06:02:31.731Z,11.39
2022-11-13T06:03:03.524Z,11.39
2022-11-13T06:03:36.404Z,11.39
2022-11-13T06:04:09.944Z,11.39
2022-11-13T06:04:41.723Z,11.39
2022-11-13T06:05:13.663Z,11.40
2022-11-13T06:05:45.465Z,11.39
2022-11-13T06:06:19.713Z,11.39
2022-11-13T06:06:52.080Z,11.37
2022-11-13T06:07:23.989Z,11.36
2022-11-13T06:07:55.876Z,11.35
2022-11-13T06:08:28.188Z,11.34
2022-11-13T06:09:03.179Z,11.33
2022-11-13T06:09:34.974Z,11.33
2022-11-13T06:10:07.283Z,11.32
2022-11-13T06:10:39.163Z,11.32
2022-11-13T06:11:16.692Z,11.31
2022-11-13T06:11:48.610Z,11.31
2022-11-13T06:12:20.502Z,11.30
2022-11-13T06:12:54.443Z,11.30
2022-11-13T06:13:26.611Z,11.30
2022-11-13T06:13:59.280Z,11.30
2022-11-13T06:14:31.136Z,11.30
2022-11-13T06:15:03.182Z,11.30
2022-11-13T06:15:35.006Z,11.30
2022-11-13T06:16:33.220Z,11.29
2022-11-13T06:17:05.200Z,11.28
2022-11-13T06:17:37.176Z,11.29
2022-11-13T06:18:09.244Z,11.30
2022-11-13T06:18:43.094Z,11.31
2022-11-13T06:19:15.115Z,11.32
2022-11-13T06:19:47.986Z,11.32
2022-11-13T06:20:19.746Z,11.31
2022-11-13T06:20:51.620Z,11.31
2022-11-13T06:21:26.306Z,11.30
2022-11-13T06:21:58.128Z,11.29
2022-11-13T06:22:30.068Z,11.28
2022-11-13T06:23:01.983Z,11.27
2022-11-13T06:23:35.898Z,11.29
2022-11-13T06:24:11.738Z,11.39
2022-11-13T06:24:43.708Z,11.60
2022-11-13T06:25:15.732Z,11.80
2022-11-13T06:25:47.650Z,11.93
2022-11-13T06:26:21.891Z,12.02
2022-11-13T06:26:53.949Z,12.09
2022-11-13T06:27:27.232Z,12.12
2022-11-13T06:27:59.011Z,12.16
2022-11-13T06:28:32.502Z,12.18
2022-11-13T06:29:07.871Z,12.20
2022-11-13T06:29:39.774Z,12.23
2022-11-13T06:30:12.352Z,12.25
2022-11-13T06:30:44.308Z,12.29
2022-11-13T06:31:18.002Z,12.36
2022-11-13T06:31:49.945Z,12.49
2022-11-13T06:32:21.715Z,12.62
2022-11-13T06:32:54.070Z,12.71
2022-11-13T06:33:28.101Z,12.75
2022-11-13T06:34:00.600Z,12.75
2022-11-13T06:34:32.532Z,12.71
2022-11-13T06:35:04.787Z,12.66
2022-11-13T06:35:36.556Z,12.57
2022-11-13T06:36:11.700Z,12.49
2022-11-13T06:36:43.573Z,12.38
2022-11-13T06:37:15.535Z,12.29
2022-11-13T06:37:47.474Z,12.20
2022-11-13T06:38:19.595Z,12.11
2022-11-13T06:38:51.624Z,12.03
2022-11-13T06:39:23.570Z,11.95
2022-11-13T06:39:55.498Z,11.87
2022-11-13T06:40:27.423Z,11.81
2022-11-13T06:41:00.167Z,11.74
2022-11-13T06:41:32.126Z,11.68
2022-11-13T06:42:03.977Z,11.63
2022-11-13T06:42:35.995Z,11.57
2022-11-13T06:43:07.974Z,11.53
2022-11-13T06:43:40.379Z,11.49
2022-11-13T06:44:12.363Z,11.46
2022-11-13T06:44:44.285Z,11.43
2022-11-13T06:45:17.438Z,11.41
2022-11-13T06:45:49.363Z,11.37
2022-11-13T06:46:24.436Z,11.35
2022-11-13T06:46:56.400Z,11.32
2022-11-13T06:47:28.452Z,11.30
2022-11-13T06:48:00.551Z,11.26
2022-11-13T06:48:33.380Z,11.24
2022-11-13T06:49:05.551Z,11.20
2022-11-13T06:49:37.548Z,11.18
2022-11-13T06:50:09.574Z,11.16
2022-11-13T06:50:45.695Z,11.13
2022-11-13T06:51:22.619Z,11.10
2022-11-13T06:51:54.375Z,11.08
2022-11-13T06:52:26.258Z,11.06
2022-11-13T06:52:58.082Z,11.04
2022-11-13T06:53:30.782Z,11.02
2022-11-13T06:54:02.604Z,11.02
2022-11-13T06:54:34.533Z,11.02
2022-11-13T06:55:06.730Z,11.03
2022-11-13T06:55:49.791Z,11.02
2022-11-13T06:56:21.861Z,11.00
2022-11-13T06:56:53.686Z,10.99
2022-11-13T06:57:25.552Z,10.97
2022-11-13T06:57:57.529Z,10.95
2022-11-13T06:58:29.870Z,10.93
2022-11-13T06:59:05.070Z,10.91
2022-11-13T06:59:39.864Z,10.89
2022-11-13T07:00:12.315Z,10.88
2022-11-13T07:00:44.321Z,10.88
2022-11-13T07:01:21.917Z,10.89
2022-11-13T07:01:53.791Z,10.91
2022-11-13T07:02:25.562Z,10.92
2022-11-13T07:02:57.576Z,10.93
2022-11-13T07:03:29.394Z,10.94
2022-11-13T07:04:01.196Z,10.96
2022-11-13T07:04:32.910Z,10.96
2022-11-13T07:05:04.911Z,10.96
2022-11-13T07:05:37.166Z,11.01
2022-11-13T07:06:17.510Z,11.15
2022-11-13T07:06:49.442Z,11.42
2022-11-13T07:07:21.257Z,11.63
2022-11-13T07:07:53.202Z,11.81